Aviation Digital Data Service (ADDS)

Output produced by METARs form (1428 UTC 02 October 2014)
found at http://aviationweather.gov/adds/metars/
 
KGFL 021121Z 0212/0312 VRB03KT P6SM BKN025 OVC035 
     FM021400 36005KT P6SM OVC025 
     FM021700 10004KT P6SM SCT025 OVC050 
     FM022000 VRB03KT P6SM BKN050 
     FM030600 00000KT 3SM BR SCT050